Terminal Aerodrome Forecast
Issued by NWS Houston/Galveston, TX

Home | Current Version | Previous Version | Text Only | Print | Product List | Glossary On
Versions: 1 2 3 4 5 6 7 8 9 10 11 12 13 14 15 16 17 18 19 20 21 22 23 24 25 26 27 28 29 30 31 32 33 34 35 36 37 38 39 40 41 42 43 44 45
000
FTUS44 KHGX 190527
TAFGLS
TAF
KGLS 190527Z 1906/2006 27007KT 5SM BR VCSH OVC005
      TEMPO 1906/1908 3SM SHRA BR OVC003
     FM190800 29007KT 4SM -SHRA BR OVC003
     FM191600 31004KT 5SM BR VCSH OVC007
     FM192200 24006KT 5SM BR BKN007 BKN015
     FM200000 17007KT 2SM BR OVC005=

USA.gov is the U.S. government's official web portal to all federal, state and local government web resources and services.